sensor_id;sensor_type;location;lat;lon;timestamp;P1;durP1;ratioP1;P2;durP2;ratioP2
18174;SDS011;9212;50.894;16.714;2023-02-26T00:01:30;4.17;;;3.10;;
18174;SDS011;9212;50.894;16.714;2023-02-26T00:04:04;5.50;;;3.67;;
18174;SDS011;9212;50.894;16.714;2023-02-26T00:06:35;5.90;;;3.33;;
18174;SDS011;9212;50.894;16.714;2023-02-26T00:09:16;4.53;;;3.50;;
18174;SDS011;9212;50.894;16.714;2023-02-26T00:11:44;4.37;;;3.10;;
18174;SDS011;9212;50.894;16.714;2023-02-26T00:14:16;3.83;;;3.30;;
18174;SDS011;9212;50.894;16.714;2023-02-26T00:16:43;10.60;;;3.90;;
18174;SDS011;9212;50.894;16.714;2023-02-26T00:19:17;7.40;;;4.23;;
18174;SDS011;9212;50.894;16.714;2023-02-26T00:21:44;4.23;;;3.27;;
18174;SDS011;9212;50.894;16.714;2023-02-26T00:24:12;3.87;;;3.23;;
18174;SDS011;9212;50.894;16.714;2023-02-26T00:26:39;5.27;;;2.93;;
18174;SDS011;9212;50.894;16.714;2023-02-26T00:29:07;4.27;;;2.87;;
18174;SDS011;9212;50.894;16.714;2023-02-26T00:31:36;3.23;;;2.90;;
18174;SDS011;9212;50.894;16.714;2023-02-26T00:34:09;4.77;;;2.70;;
18174;SDS011;9212;50.894;16.714;2023-02-26T00:36:38;3.17;;;2.70;;
18174;SDS011;9212;50.894;16.714;2023-02-26T00:39:14;7.97;;;2.53;;
18174;SDS011;9212;50.894;16.714;2023-02-26T00:41:51;4.20;;;3.10;;
18174;SDS011;9212;50.894;16.714;2023-02-26T00:44:19;5.20;;;3.10;;
18174;SDS011;9212;50.894;16.714;2023-02-26T00:46:51;3.17;;;2.73;;
18174;SDS011;9212;50.894;16.714;2023-02-26T00:49:26;4.37;;;2.63;;
18174;SDS011;9212;50.894;16.714;2023-02-26T00:52:02;5.77;;;3.03;;
18174;SDS011;9212;50.894;16.714;2023-02-26T00:54:31;2.07;;;1.97;;
18174;SDS011;9212;50.894;16.714;2023-02-26T00:56:59;2.10;;;1.90;;
18174;SDS011;9212;50.894;16.714;2023-02-26T00:59:28;3.30;;;2.80;;
18174;SDS011;9212;50.894;16.714;2023-02-26T01:01:57;4.97;;;2.47;;
18174;SDS011;9212;50.894;16.714;2023-02-26T01:04:24;3.03;;;2.77;;
18174;SDS011;9212;50.894;16.714;2023-02-26T01:06:52;4.37;;;3.10;;
18174;SDS011;9212;50.894;16.714;2023-02-26T01:09:22;2.80;;;2.40;;
18174;SDS011;9212;50.894;16.714;2023-02-26T01:11:51;5.37;;;2.77;;
18174;SDS011;9212;50.894;16.714;2023-02-26T01:14:20;4.40;;;2.17;;
18174;SDS011;9212;50.894;16.714;2023-02-26T01:16:50;2.80;;;2.00;;
18174;SDS011;9212;50.894;16.714;2023-02-26T01:19:26;4.60;;;2.53;;
18174;SDS011;9212;50.894;16.714;2023-02-26T01:22:00;2.27;;;2.10;;
18174;SDS011;9212;50.894;16.714;2023-02-26T01:24:33;2.87;;;2.40;;
18174;SDS011;9212;50.894;16.714;2023-02-26T01:27:00;2.20;;;1.97;;
18174;SDS011;9212;50.894;16.714;2023-02-26T01:29:27;3.00;;;2.70;;
18174;SDS011;9212;50.894;16.714;2023-02-26T01:31:56;2.27;;;2.13;;
18174;SDS011;9212;50.894;16.714;2023-02-26T01:34:33;6.03;;;2.00;;
18174;SDS011;9212;50.894;16.714;2023-02-26T01:37:07;5.10;;;2.23;;
18174;SDS011;9212;50.894;16.714;2023-02-26T01:39:43;5.07;;;2.47;;
18174;SDS011;9212;50.894;16.714;2023-02-26T01:42:14;4.33;;;2.83;;
18174;SDS011;9212;50.894;16.714;2023-02-26T01:44:47;2.10;;;1.93;;
18174;SDS011;9212;50.894;16.714;2023-02-26T01:47:22;2.70;;;2.27;;
18174;SDS011;9212;50.894;16.714;2023-02-26T01:49:57;2.73;;;2.47;;
18174;SDS011;9212;50.894;16.714;2023-02-26T01:55:42;1.87;;;1.77;;
18174;SDS011;9212;50.894;16.714;2023-02-26T01:58:12;3.60;;;2.57;;
18174;SDS011;9212;50.894;16.714;2023-02-26T02:00:39;3.47;;;2.50;;
18174;SDS011;9212;50.894;16.714;2023-02-26T02:03:06;4.90;;;2.80;;
18174;SDS011;9212;50.894;16.714;2023-02-26T02:05:38;3.17;;;2.60;;
18174;SDS011;9212;50.894;16.714;2023-02-26T02:08:08;3.43;;;2.73;;
18174;SDS011;9212;50.894;16.714;2023-02-26T02:10:35;2.80;;;2.60;;
18174;SDS011;9212;50.894;16.714;2023-02-26T02:13:09;2.43;;;2.23;;
18174;SDS011;9212;50.894;16.714;2023-02-26T02:15:45;2.83;;;1.93;;
18174;SDS011;9212;50.894;16.714;2023-02-26T02:18:20;4.53;;;2.20;;
18174;SDS011;9212;50.894;16.714;2023-02-26T02:21:02;2.37;;;2.10;;
18174;SDS011;9212;50.894;16.714;2023-02-26T02:23:55;4.07;;;2.07;;
18174;SDS011;9212;50.894;16.714;2023-02-26T02:26:39;2.97;;;2.37;;
18174;SDS011;9212;50.894;16.714;2023-02-26T02:29:32;3.73;;;2.90;;
18174;SDS011;9212;50.894;16.714;2023-02-26T02:32:26;2.60;;;2.40;;
18174;SDS011;9212;50.894;16.714;2023-02-26T02:34:57;2.37;;;2.10;;
18174;SDS011;9212;50.894;16.714;2023-02-26T02:37:29;2.80;;;2.43;;
18174;SDS011;9212;50.894;16.714;2023-02-26T02:40:02;1.90;;;1.80;;
18174;SDS011;9212;50.894;16.714;2023-02-26T02:42:32;2.13;;;2.03;;
18174;SDS011;9212;50.894;16.714;2023-02-26T02:45:06;2.47;;;2.23;;
18174;SDS011;9212;50.894;16.714;2023-02-26T02:47:39;2.83;;;2.53;;
18174;SDS011;9212;50.894;16.714;2023-02-26T02:50:11;4.07;;;2.57;;
18174;SDS011;9212;50.894;16.714;2023-02-26T02:52:44;2.90;;;2.50;;
18174;SDS011;9212;50.894;16.714;2023-02-26T02:55:18;4.43;;;2.87;;
18174;SDS011;9212;50.894;16.714;2023-02-26T02:57:51;4.03;;;3.07;;
18174;SDS011;9212;50.894;16.714;2023-02-26T03:00:21;2.00;;;1.90;;
18174;SDS011;9212;50.894;16.714;2023-02-26T03:02:51;1.90;;;1.80;;
18174;SDS011;9212;50.894;16.714;2023-02-26T03:05:25;3.80;;;2.70;;
18174;SDS011;9212;50.894;16.714;2023-02-26T03:07:53;5.93;;;3.10;;
18174;SDS011;9212;50.894;16.714;2023-02-26T03:10:24;3.10;;;2.70;;
18174;SDS011;9212;50.894;16.714;2023-02-26T03:12:51;2.97;;;2.47;;
18174;SDS011;9212;50.894;16.714;2023-02-26T03:15:20;5.57;;;2.67;;
18174;SDS011;9212;50.894;16.714;2023-02-26T03:17:58;2.10;;;1.90;;
18174;SDS011;9212;50.894;16.714;2023-02-26T03:20:29;5.03;;;2.77;;
18174;SDS011;9212;50.894;16.714;2023-02-26T03:23:03;2.77;;;2.40;;
18174;SDS011;9212;50.894;16.714;2023-02-26T03:25:35;2.30;;;1.87;;
18174;SDS011;9212;50.894;16.714;2023-02-26T03:28:11;5.17;;;2.40;;
18174;SDS011;9212;50.894;16.714;2023-02-26T03:30:44;1.83;;;1.73;;
18174;SDS011;9212;50.894;16.714;2023-02-26T03:33:18;2.17;;;2.07;;
18174;SDS011;9212;50.894;16.714;2023-02-26T03:35:50;1.60;;;1.50;;
18174;SDS011;9212;50.894;16.714;2023-02-26T03:38:23;2.03;;;1.90;;
18174;SDS011;9212;50.894;16.714;2023-02-26T03:40:56;2.17;;;1.97;;
18174;SDS011;9212;50.894;16.714;2023-02-26T03:43:27;4.37;;;1.90;;
18174;SDS011;9212;50.894;16.714;2023-02-26T03:45:59;2.33;;;2.20;;
18174;SDS011;9212;50.894;16.714;2023-02-26T03:48:32;2.30;;;2.10;;
18174;SDS011;9212;50.894;16.714;2023-02-26T03:51:02;1.90;;;1.80;;
18174;SDS011;9212;50.894;16.714;2023-02-26T03:53:35;2.47;;;2.27;;
18174;SDS011;9212;50.894;16.714;2023-02-26T03:56:06;2.70;;;2.43;;
18174;SDS011;9212;50.894;16.714;2023-02-26T03:58:48;3.33;;;2.23;;
18174;SDS011;9212;50.894;16.714;2023-02-26T04:01:17;1.87;;;1.67;;
18174;SDS011;9212;50.894;16.714;2023-02-26T04:03:51;2.13;;;2.00;;
18174;SDS011;9212;50.894;16.714;2023-02-26T04:06:23;2.17;;;1.97;;
18174;SDS011;9212;50.894;16.714;2023-02-26T04:08:51;1.77;;;1.67;;
18174;SDS011;9212;50.894;16.714;2023-02-26T04:11:19;1.67;;;1.57;;
18174;SDS011;9212;50.894;16.714;2023-02-26T04:13:47;2.80;;;1.20;;
18174;SDS011;9212;50.894;16.714;2023-02-26T04:16:14;2.27;;;2.17;;
18174;SDS011;9212;50.894;16.714;2023-02-26T04:18:42;1.70;;;1.60;;
18174;SDS011;9212;50.894;16.714;2023-02-26T04:21:12;2.53;;;1.70;;
18174;SDS011;9212;50.894;16.714;2023-02-26T04:23:39;2.57;;;2.37;;
18174;SDS011;9212;50.894;16.714;2023-02-26T04:26:07;2.50;;;2.27;;
18174;SDS011;9212;50.894;16.714;2023-02-26T04:28:34;1.27;;;1.17;;
18174;SDS011;9212;50.894;16.714;2023-02-26T04:31:02;3.33;;;2.10;;
18174;SDS011;9212;50.894;16.714;2023-02-26T04:33:30;1.67;;;1.63;;
18174;SDS011;9212;50.894;16.714;2023-02-26T04:35:57;1.97;;;1.87;;
18174;SDS011;9212;50.894;16.714;2023-02-26T04:38:26;1.60;;;1.50;;
18174;SDS011;9212;50.894;16.714;2023-02-26T04:40:53;3.47;;;2.07;;
18174;SDS011;9212;50.894;16.714;2023-02-26T04:43:21;2.73;;;2.53;;
18174;SDS011;9212;50.894;16.714;2023-02-26T04:45:48;2.50;;;2.13;;
18174;SDS011;9212;50.894;16.714;2023-02-26T04:48:16;2.13;;;1.93;;
18174;SDS011;9212;50.894;16.714;2023-02-26T04:50:43;1.47;;;1.37;;
18174;SDS011;9212;50.894;16.714;2023-02-26T04:53:11;1.47;;;1.47;;
18174;SDS011;9212;50.894;16.714;2023-02-26T04:55:39;4.07;;;1.93;;
18174;SDS011;9212;50.894;16.714;2023-02-26T04:58:07;1.57;;;1.57;;
18174;SDS011;9212;50.894;16.714;2023-02-26T05:00:34;2.47;;;1.57;;
18174;SDS011;9212;50.894;16.714;2023-02-26T05:03:02;1.73;;;1.63;;
18174;SDS011;9212;50.894;16.714;2023-02-26T05:05:29;1.70;;;1.60;;
18174;SDS011;9212;50.894;16.714;2023-02-26T05:07:56;1.87;;;1.77;;
18174;SDS011;9212;50.894;16.714;2023-02-26T05:10:24;4.43;;;1.90;;
18174;SDS011;9212;50.894;16.714;2023-02-26T05:12:52;1.70;;;1.60;;
18174;SDS011;9212;50.894;16.714;2023-02-26T05:15:19;4.50;;;1.70;;
18174;SDS011;9212;50.894;16.714;2023-02-26T05:17:47;2.43;;;2.23;;
18174;SDS011;9212;50.894;16.714;2023-02-26T05:20:14;2.63;;;2.30;;
18174;SDS011;9212;50.894;16.714;2023-02-26T05:22:41;5.27;;;1.93;;
18174;SDS011;9212;50.894;16.714;2023-02-26T05:25:09;2.20;;;2.10;;
18174;SDS011;9212;50.894;16.714;2023-02-26T05:27:37;1.70;;;1.60;;
18174;SDS011;9212;50.894;16.714;2023-02-26T05:30:09;2.93;;;1.87;;
18174;SDS011;9212;50.894;16.714;2023-02-26T05:32:38;2.97;;;2.20;;
18174;SDS011;9212;50.894;16.714;2023-02-26T05:35:05;2.60;;;2.40;;
18174;SDS011;9212;50.894;16.714;2023-02-26T05:37:33;2.20;;;1.93;;
18174;SDS011;9212;50.894;16.714;2023-02-26T05:40:00;2.13;;;1.63;;
18174;SDS011;9212;50.894;16.714;2023-02-26T05:42:27;1.87;;;1.77;;
18174;SDS011;9212;50.894;16.714;2023-02-26T05:44:55;2.07;;;1.97;;
18174;SDS011;9212;50.894;16.714;2023-02-26T05:47:24;1.67;;;1.37;;
18174;SDS011;9212;50.894;16.714;2023-02-26T05:49:51;1.87;;;1.70;;
18174;SDS011;9212;50.894;16.714;2023-02-26T05:52:18;1.67;;;1.67;;
18174;SDS011;9212;50.894;16.714;2023-02-26T05:54:45;2.53;;;2.33;;
18174;SDS011;9212;50.894;16.714;2023-02-26T05:57:13;3.03;;;2.60;;
18174;SDS011;9212;50.894;16.714;2023-02-26T05:59:40;3.60;;;2.10;;
18174;SDS011;9212;50.894;16.714;2023-02-26T06:02:07;3.27;;;2.07;;
18174;SDS011;9212;50.894;16.714;2023-02-26T06:04:36;2.53;;;2.33;;
18174;SDS011;9212;50.894;16.714;2023-02-26T06:07:03;2.83;;;2.10;;
18174;SDS011;9212;50.894;16.714;2023-02-26T06:09:30;5.13;;;2.60;;
18174;SDS011;9212;50.894;16.714;2023-02-26T06:11:57;5.20;;;3.63;;
18174;SDS011;9212;50.894;16.714;2023-02-26T06:14:25;11.27;;;4.07;;
18174;SDS011;9212;50.894;16.714;2023-02-26T06:16:52;7.07;;;3.67;;
18174;SDS011;9212;50.894;16.714;2023-02-26T06:19:19;6.23;;;2.87;;
18174;SDS011;9212;50.894;16.714;2023-02-26T06:21:48;7.33;;;3.07;;
18174;SDS011;9212;50.894;16.714;2023-02-26T06:24:15;14.10;;;4.77;;
18174;SDS011;9212;50.894;16.714;2023-02-26T06:26:42;7.20;;;2.87;;
18174;SDS011;9212;50.894;16.714;2023-02-26T06:29:09;3.40;;;2.30;;
18174;SDS011;9212;50.894;16.714;2023-02-26T06:31:37;4.20;;;2.90;;
18174;SDS011;9212;50.894;16.714;2023-02-26T06:34:04;9.23;;;2.40;;
18174;SDS011;9212;50.894;16.714;2023-02-26T06:36:31;5.80;;;3.10;;
18174;SDS011;9212;50.894;16.714;2023-02-26T06:39:00;6.73;;;3.03;;
18174;SDS011;9212;50.894;16.714;2023-02-26T06:41:27;4.83;;;2.90;;
18174;SDS011;9212;50.894;16.714;2023-02-26T06:43:55;4.00;;;2.37;;
18174;SDS011;9212;50.894;16.714;2023-02-26T06:46:22;5.40;;;2.67;;
18174;SDS011;9212;50.894;16.714;2023-02-26T06:48:49;2.13;;;1.43;;
18174;SDS011;9212;50.894;16.714;2023-02-26T06:51:16;3.87;;;2.27;;
18174;SDS011;9212;50.894;16.714;2023-02-26T06:53:44;6.23;;;3.30;;
18174;SDS011;9212;50.894;16.714;2023-02-26T06:56:12;2.63;;;1.90;;
18174;SDS011;9212;50.894;16.714;2023-02-26T06:58:39;1.63;;;1.57;;
18174;SDS011;9212;50.894;16.714;2023-02-26T07:01:07;4.50;;;1.87;;
18174;SDS011;9212;50.894;16.714;2023-02-26T07:03:34;2.23;;;2.03;;
18174;SDS011;9212;50.894;16.714;2023-02-26T07:06:02;2.40;;;2.00;;
18174;SDS011;9212;50.894;16.714;2023-02-26T07:08:32;3.47;;;2.73;;
18174;SDS011;9212;50.894;16.714;2023-02-26T07:11:00;2.70;;;2.33;;
18174;SDS011;9212;50.894;16.714;2023-02-26T07:13:28;2.37;;;2.17;;
18174;SDS011;9212;50.894;16.714;2023-02-26T07:15:56;4.63;;;2.57;;
18174;SDS011;9212;50.894;16.714;2023-02-26T07:18:23;4.90;;;2.20;;
18174;SDS011;9212;50.894;16.714;2023-02-26T07:20:51;4.63;;;3.30;;
18174;SDS011;9212;50.894;16.714;2023-02-26T07:23:18;5.40;;;3.57;;
18174;SDS011;9212;50.894;16.714;2023-02-26T07:25:47;2.80;;;2.37;;
18174;SDS011;9212;50.894;16.714;2023-02-26T07:28:14;3.87;;;2.47;;
18174;SDS011;9212;50.894;16.714;2023-02-26T07:30:43;6.03;;;2.47;;
18174;SDS011;9212;50.894;16.714;2023-02-26T07:33:10;6.47;;;2.90;;
18174;SDS011;9212;50.894;16.714;2023-02-26T07:35:37;4.50;;;2.57;;
18174;SDS011;9212;50.894;16.714;2023-02-26T07:38:05;5.47;;;2.87;;
18174;SDS011;9212;50.894;16.714;2023-02-26T07:40:32;3.93;;;2.50;;
18174;SDS011;9212;50.894;16.714;2023-02-26T07:42:59;8.50;;;2.97;;
18174;SDS011;9212;50.894;16.714;2023-02-26T07:45:26;5.07;;;1.93;;
18174;SDS011;9212;50.894;16.714;2023-02-26T07:47:55;4.33;;;2.20;;
18174;SDS011;9212;50.894;16.714;2023-02-26T07:50:22;4.83;;;2.83;;
18174;SDS011;9212;50.894;16.714;2023-02-26T07:52:50;6.70;;;3.23;;
18174;SDS011;9212;50.894;16.714;2023-02-26T07:55:18;3.93;;;2.27;;
18174;SDS011;9212;50.894;16.714;2023-02-26T07:57:45;3.77;;;2.33;;
18174;SDS011;9212;50.894;16.714;2023-02-26T08:00:14;2.70;;;2.20;;
18174;SDS011;9212;50.894;16.714;2023-02-26T08:02:42;4.03;;;2.20;;
18174;SDS011;9212;50.894;16.714;2023-02-26T08:05:11;3.20;;;2.90;;
18174;SDS011;9212;50.894;16.714;2023-02-26T08:07:38;3.47;;;2.47;;
18174;SDS011;9212;50.894;16.714;2023-02-26T08:10:05;6.40;;;3.40;;
18174;SDS011;9212;50.894;16.714;2023-02-26T08:12:32;6.87;;;3.10;;
18174;SDS011;9212;50.894;16.714;2023-02-26T08:15:00;5.33;;;2.97;;
18174;SDS011;9212;50.894;16.714;2023-02-26T08:17:28;4.53;;;2.40;;
18174;SDS011;9212;50.894;16.714;2023-02-26T08:19:55;2.37;;;2.20;;
18174;SDS011;9212;50.894;16.714;2023-02-26T08:22:24;3.03;;;2.30;;
18174;SDS011;9212;50.894;16.714;2023-02-26T08:24:51;3.13;;;1.90;;
18174;SDS011;9212;50.894;16.714;2023-02-26T08:27:18;2.77;;;2.50;;
18174;SDS011;9212;50.894;16.714;2023-02-26T08:29:45;3.13;;;2.30;;
18174;SDS011;9212;50.894;16.714;2023-02-26T08:32:14;3.20;;;2.90;;
18174;SDS011;9212;50.894;16.714;2023-02-26T08:34:42;3.97;;;2.70;;
18174;SDS011;9212;50.894;16.714;2023-02-26T08:37:09;2.37;;;2.00;;
18174;SDS011;9212;50.894;16.714;2023-02-26T08:39:38;2.57;;;2.37;;
18174;SDS011;9212;50.894;16.714;2023-02-26T08:42:06;5.23;;;2.47;;
18174;SDS011;9212;50.894;16.714;2023-02-26T08:44:35;4.57;;;2.67;;
18174;SDS011;9212;50.894;16.714;2023-02-26T08:47:02;3.33;;;2.80;;
18174;SDS011;9212;50.894;16.714;2023-02-26T08:49:29;2.33;;;2.20;;
18174;SDS011;9212;50.894;16.714;2023-02-26T08:51:57;5.23;;;2.67;;
18174;SDS011;9212;50.894;16.714;2023-02-26T08:54:24;7.47;;;2.03;;
18174;SDS011;9212;50.894;16.714;2023-02-26T08:56:53;2.50;;;2.40;;
18174;SDS011;9212;50.894;16.714;2023-02-26T08:59:21;6.60;;;2.90;;
18174;SDS011;9212;50.894;16.714;2023-02-26T09:01:49;11.67;;;3.87;;
18174;SDS011;9212;50.894;16.714;2023-02-26T09:04:17;5.93;;;3.73;;
18174;SDS011;9212;50.894;16.714;2023-02-26T09:06:44;7.93;;;3.20;;
18174;SDS011;9212;50.894;16.714;2023-02-26T09:09:11;4.03;;;3.13;;
18174;SDS011;9212;50.894;16.714;2023-02-26T09:11:38;4.53;;;3.17;;
18174;SDS011;9212;50.894;16.714;2023-02-26T09:14:07;6.90;;;3.63;;
18174;SDS011;9212;50.894;16.714;2023-02-26T09:16:34;8.57;;;3.93;;
18174;SDS011;9212;50.894;16.714;2023-02-26T09:19:01;5.47;;;3.93;;
18174;SDS011;9212;50.894;16.714;2023-02-26T09:21:29;8.50;;;3.33;;
18174;SDS011;9212;50.894;16.714;2023-02-26T09:23:56;6.23;;;3.63;;
18174;SDS011;9212;50.894;16.714;2023-02-26T09:26:23;2.60;;;2.40;;
18174;SDS011;9212;50.894;16.714;2023-02-26T09:28:51;2.57;;;2.37;;
18174;SDS011;9212;50.894;16.714;2023-02-26T09:31:19;4.17;;;2.67;;
18174;SDS011;9212;50.894;16.714;2023-02-26T09:33:47;2.83;;;2.50;;
18174;SDS011;9212;50.894;16.714;2023-02-26T09:36:14;2.83;;;2.43;;
18174;SDS011;9212;50.894;16.714;2023-02-26T09:38:41;5.93;;;2.50;;
18174;SDS011;9212;50.894;16.714;2023-02-26T09:41:13;3.97;;;3.57;;
18174;SDS011;9212;50.894;16.714;2023-02-26T09:43:50;4.63;;;3.30;;
18174;SDS011;9212;50.894;16.714;2023-02-26T09:46:33;3.20;;;2.53;;
18174;SDS011;9212;50.894;16.714;2023-02-26T09:49:10;3.30;;;3.07;;
18174;SDS011;9212;50.894;16.714;2023-02-26T09:51:45;7.07;;;4.60;;
18174;SDS011;9212;50.894;16.714;2023-02-26T09:54:17;4.73;;;3.20;;
18174;SDS011;9212;50.894;16.714;2023-02-26T09:56:48;7.33;;;2.90;;
18174;SDS011;9212;50.894;16.714;2023-02-26T09:59:17;2.63;;;2.30;;
18174;SDS011;9212;50.894;16.714;2023-02-26T10:01:47;3.90;;;3.10;;
18174;SDS011;9212;50.894;16.714;2023-02-26T10:04:24;5.53;;;3.10;;
18174;SDS011;9212;50.894;16.714;2023-02-26T10:07:07;3.27;;;2.97;;
18174;SDS011;9212;50.894;16.714;2023-02-26T10:10:02;1.63;;;1.53;;
18174;SDS011;9212;50.894;16.714;2023-02-26T10:12:39;2.37;;;2.27;;
18174;SDS011;9212;50.894;16.714;2023-02-26T10:15:10;5.13;;;3.13;;
18174;SDS011;9212;50.894;16.714;2023-02-26T10:17:45;6.83;;;2.97;;
18174;SDS011;9212;50.894;16.714;2023-02-26T10:20:24;6.03;;;2.97;;
18174;SDS011;9212;50.894;16.714;2023-02-26T10:22:56;2.47;;;2.27;;
18174;SDS011;9212;50.894;16.714;2023-02-26T10:25:32;4.07;;;2.60;;
18174;SDS011;9212;50.894;16.714;2023-02-26T10:28:06;2.73;;;2.33;;
18174;SDS011;9212;50.894;16.714;2023-02-26T10:30:49;3.93;;;2.60;;
18174;SDS011;9212;50.894;16.714;2023-02-26T10:33:25;3.47;;;3.17;;
18174;SDS011;9212;50.894;16.714;2023-02-26T10:36:00;8.40;;;4.00;;
18174;SDS011;9212;50.894;16.714;2023-02-26T10:38:37;4.43;;;2.70;;
18174;SDS011;9212;50.894;16.714;2023-02-26T10:41:05;2.13;;;2.00;;
18174;SDS011;9212;50.894;16.714;2023-02-26T10:43:38;11.33;;;4.60;;
18174;SDS011;9212;50.894;16.714;2023-02-26T10:46:15;7.73;;;3.33;;
18174;SDS011;9212;50.894;16.714;2023-02-26T10:48:58;3.90;;;2.83;;
18174;SDS011;9212;50.894;16.714;2023-02-26T10:51:38;2.33;;;2.23;;
18174;SDS011;9212;50.894;16.714;2023-02-26T10:54:12;2.43;;;2.23;;
18174;SDS011;9212;50.894;16.714;2023-02-26T10:56:46;9.50;;;4.93;;
18174;SDS011;9212;50.894;16.714;2023-02-26T10:59:14;2.60;;;2.40;;
18174;SDS011;9212;50.894;16.714;2023-02-26T11:01:41;3.03;;;2.77;;
18174;SDS011;9212;50.894;16.714;2023-02-26T11:04:11;3.40;;;3.10;;
18174;SDS011;9212;50.894;16.714;2023-02-26T11:06:44;3.33;;;2.43;;
18174;SDS011;9212;50.894;16.714;2023-02-26T11:09:17;2.37;;;2.23;;
18174;SDS011;9212;50.894;16.714;2023-02-26T11:11:47;3.97;;;2.63;;
18174;SDS011;9212;50.894;16.714;2023-02-26T11:14:17;4.90;;;3.17;;
18174;SDS011;9212;50.894;16.714;2023-02-26T11:16:47;2.70;;;2.47;;
18174;SDS011;9212;50.894;16.714;2023-02-26T11:19:22;2.63;;;2.43;;
18174;SDS011;9212;50.894;16.714;2023-02-26T11:21:52;5.37;;;2.43;;
18174;SDS011;9212;50.894;16.714;2023-02-26T11:24:22;3.63;;;2.97;;
18174;SDS011;9212;50.894;16.714;2023-02-26T11:26:55;6.90;;;2.47;;
18174;SDS011;9212;50.894;16.714;2023-02-26T11:29:28;1.77;;;1.67;;
18174;SDS011;9212;50.894;16.714;2023-02-26T11:32:02;9.63;;;5.00;;
18174;SDS011;9212;50.894;16.714;2023-02-26T11:34:30;9.07;;;5.60;;
18174;SDS011;9212;50.894;16.714;2023-02-26T11:36:59;4.00;;;3.00;;
18174;SDS011;9212;50.894;16.714;2023-02-26T11:39:27;3.30;;;2.57;;
18174;SDS011;9212;50.894;16.714;2023-02-26T11:41:58;5.40;;;3.60;;
18174;SDS011;9212;50.894;16.714;2023-02-26T11:44:31;3.87;;;3.13;;
18174;SDS011;9212;50.894;16.714;2023-02-26T11:47:01;2.63;;;2.33;;
18174;SDS011;9212;50.894;16.714;2023-02-26T11:49:33;3.30;;;2.53;;
18174;SDS011;9212;50.894;16.714;2023-02-26T11:52:05;3.20;;;2.90;;
18174;SDS011;9212;50.894;16.714;2023-02-26T11:54:43;6.83;;;2.80;;
18174;SDS011;9212;50.894;16.714;2023-02-26T11:57:14;3.03;;;2.73;;
18174;SDS011;9212;50.894;16.714;2023-02-26T11:59:43;3.13;;;2.20;;
18174;SDS011;9212;50.894;16.714;2023-02-26T12:02:14;3.77;;;2.87;;
18174;SDS011;9212;50.894;16.714;2023-02-26T12:04:46;5.97;;;3.87;;
18174;SDS011;9212;50.894;16.714;2023-02-26T12:07:16;5.53;;;3.47;;
18174;SDS011;9212;50.894;16.714;2023-02-26T12:09:45;5.67;;;4.03;;
18174;SDS011;9212;50.894;16.714;2023-02-26T12:12:17;6.60;;;4.40;;
18174;SDS011;9212;50.894;16.714;2023-02-26T12:15:07;10.43;;;4.47;;
18174;SDS011;9212;50.894;16.714;2023-02-26T12:17:50;11.90;;;4.67;;
18174;SDS011;9212;50.894;16.714;2023-02-26T12:20:32;5.27;;;3.67;;
18174;SDS011;9212;50.894;16.714;2023-02-26T12:23:17;7.47;;;4.23;;
18174;SDS011;9212;50.894;16.714;2023-02-26T12:25:55;4.33;;;3.40;;
18174;SDS011;9212;50.894;16.714;2023-02-26T12:28:39;8.83;;;3.30;;
18174;SDS011;9212;50.894;16.714;2023-02-26T12:31:38;4.87;;;3.10;;
18174;SDS011;9212;50.894;16.714;2023-02-26T12:34:34;7.83;;;5.00;;
18174;SDS011;9212;50.894;16.714;2023-02-26T12:37:30;11.17;;;6.13;;
18174;SDS011;9212;50.894;16.714;2023-02-26T12:40:05;10.23;;;4.37;;
18174;SDS011;9212;50.894;16.714;2023-02-26T12:42:44;13.70;;;6.43;;
18174;SDS011;9212;50.894;16.714;2023-02-26T12:45:28;8.47;;;4.90;;
18174;SDS011;9212;50.894;16.714;2023-02-26T12:48:16;5.50;;;4.03;;
18174;SDS011;9212;50.894;16.714;2023-02-26T12:51:04;10.37;;;3.63;;
18174;SDS011;9212;50.894;16.714;2023-02-26T12:53:51;3.47;;;2.63;;
18174;SDS011;9212;50.894;16.714;2023-02-26T12:56:38;7.20;;;4.00;;
18174;SDS011;9212;50.894;16.714;2023-02-26T12:59:28;5.57;;;2.80;;
18174;SDS011;9212;50.894;16.714;2023-02-26T13:05:27;7.70;;;3.83;;
18174;SDS011;9212;50.894;16.714;2023-02-26T13:08:10;2.47;;;2.27;;
18174;SDS011;9212;50.894;16.714;2023-02-26T13:10:47;6.80;;;3.47;;
18174;SDS011;9212;50.894;16.714;2023-02-26T13:13:37;4.77;;;3.10;;
18174;SDS011;9212;50.894;16.714;2023-02-26T13:16:17;4.70;;;3.27;;
18174;SDS011;9212;50.894;16.714;2023-02-26T13:18:55;2.20;;;2.10;;
18174;SDS011;9212;50.894;16.714;2023-02-26T13:21:29;8.83;;;5.37;;
18174;SDS011;9212;50.894;16.714;2023-02-26T13:24:01;8.97;;;2.93;;
18174;SDS011;9212;50.894;16.714;2023-02-26T13:26:33;8.07;;;5.10;;
18174;SDS011;9212;50.894;16.714;2023-02-26T13:29:03;6.50;;;4.10;;
18174;SDS011;9212;50.894;16.714;2023-02-26T13:31:37;4.70;;;3.23;;
18174;SDS011;9212;50.894;16.714;2023-02-26T13:34:14;9.93;;;5.07;;
18174;SDS011;9212;50.894;16.714;2023-02-26T13:36:45;2.60;;;2.43;;
18174;SDS011;9212;50.894;16.714;2023-02-26T13:39:28;3.07;;;2.77;;
18174;SDS011;9212;50.894;16.714;2023-02-26T13:42:07;2.30;;;2.10;;
18174;SDS011;9212;50.894;16.714;2023-02-26T13:44:47;6.83;;;3.70;;
18174;SDS011;9212;50.894;16.714;2023-02-26T13:47:37;2.10;;;1.90;;
18174;SDS011;9212;50.894;16.714;2023-02-26T13:50:26;4.67;;;3.23;;
18174;SDS011;9212;50.894;16.714;2023-02-26T13:53:01;8.00;;;3.20;;
18174;SDS011;9212;50.894;16.714;2023-02-26T13:55:39;3.47;;;3.00;;
18174;SDS011;9212;50.894;16.714;2023-02-26T13:58:17;4.03;;;2.67;;
18174;SDS011;9212;50.894;16.714;2023-02-26T14:00:58;6.50;;;4.20;;
18174;SDS011;9212;50.894;16.714;2023-02-26T14:03:32;10.00;;;4.77;;
18174;SDS011;9212;50.894;16.714;2023-02-26T14:06:07;8.80;;;4.00;;
18174;SDS011;9212;50.894;16.714;2023-02-26T14:08:48;6.00;;;3.57;;
18174;SDS011;9212;50.894;16.714;2023-02-26T14:11:32;4.40;;;2.90;;
18174;SDS011;9212;50.894;16.714;2023-02-26T14:14:30;6.90;;;4.27;;
18174;SDS011;9212;50.894;16.714;2023-02-26T14:20:11;7.53;;;3.70;;
18174;SDS011;9212;50.894;16.714;2023-02-26T14:22:50;3.23;;;2.20;;
18174;SDS011;9212;50.894;16.714;2023-02-26T14:25:26;2.23;;;2.00;;
18174;SDS011;9212;50.894;16.714;2023-02-26T14:31:06;3.50;;;3.20;;
18174;SDS011;9212;50.894;16.714;2023-02-26T14:33:43;9.97;;;4.77;;
18174;SDS011;9212;50.894;16.714;2023-02-26T14:36:14;6.13;;;4.50;;
18174;SDS011;9212;50.894;16.714;2023-02-26T14:38:45;4.53;;;3.57;;
18174;SDS011;9212;50.894;16.714;2023-02-26T14:41:19;4.07;;;3.30;;
18174;SDS011;9212;50.894;16.714;2023-02-26T14:43:54;5.80;;;4.87;;
18174;SDS011;9212;50.894;16.714;2023-02-26T14:46:26;5.30;;;3.83;;
18174;SDS011;9212;50.894;16.714;2023-02-26T14:48:56;7.07;;;4.20;;
18174;SDS011;9212;50.894;16.714;2023-02-26T14:51:25;10.03;;;4.53;;
18174;SDS011;9212;50.894;16.714;2023-02-26T14:54:11;5.20;;;3.13;;
18174;SDS011;9212;50.894;16.714;2023-02-26T14:56:55;10.63;;;4.30;;
18174;SDS011;9212;50.894;16.714;2023-02-26T14:59:35;7.10;;;4.30;;
18174;SDS011;9212;50.894;16.714;2023-02-26T15:02:24;7.40;;;3.30;;
18174;SDS011;9212;50.894;16.714;2023-02-26T15:05:03;6.00;;;4.27;;
18174;SDS011;9212;50.894;16.714;2023-02-26T15:07:57;9.37;;;5.03;;
18174;SDS011;9212;50.894;16.714;2023-02-26T15:10:39;5.73;;;3.33;;
18174;SDS011;9212;50.894;16.714;2023-02-26T15:13:24;9.03;;;4.50;;
18174;SDS011;9212;50.894;16.714;2023-02-26T15:16:02;7.47;;;3.70;;
18174;SDS011;9212;50.894;16.714;2023-02-26T15:18:49;5.53;;;3.90;;
18174;SDS011;9212;50.894;16.714;2023-02-26T15:21:31;5.27;;;3.70;;
18174;SDS011;9212;50.894;16.714;2023-02-26T15:24:06;5.80;;;3.00;;
18174;SDS011;9212;50.894;16.714;2023-02-26T15:26:41;3.23;;;2.93;;
18174;SDS011;9212;50.894;16.714;2023-02-26T15:29:12;3.80;;;2.87;;
18174;SDS011;9212;50.894;16.714;2023-02-26T15:31:41;5.47;;;3.10;;